Time;durP1;ratioP1;P1;durP2;ratioP2;P2;SDS_P1;SDS_P2;PMS_P1;PMS_P2;Temp;Humidity;BMP_temperature;BMP_pressure;BME280_temperature;BME280_humidity;BME280_pressure;Samples;Min_cycle;Max_cycle;Signal;HPM_P1;HPM_P2
2021/03/16 00:01:13;;;;;;;;;;;19.40;99.90;;;;;;4980045;28;20388;-78
2021/03/16 00:03:40;;;;;;;;;;;19.40;99.90;;;;;;4982492;28;19909;-77
2021/03/16 00:06:07;;;;;;;;;;;19.30;99.90;;;;;;4992897;28;19922;-78
2021/03/16 00:08:44;;;;;;;;;;;19.20;99.90;;;;;;4992671;28;19936;-79
2021/03/16 00:11:11;;;;;;;;;;;19.20;99.90;;;;;;4982162;28;20364;-82
2021/03/16 00:13:38;;;;;;;;;;;19.20;99.90;;;;;;4995086;28;20000;-79
2021/03/16 00:16:05;;;;;;;;;;;19.30;99.90;;;;;;4975781;28;20001;-78
2021/03/16 00:18:32;;;;;;;;;;;19.30;99.90;;;;;;4992660;28;19918;-79
2021/03/16 00:20:58;;;;;;;;;;;19.40;99.90;;;;;;4989947;28;19964;-84
2021/03/16 00:23:25;;;;;;;;;;;19.40;99.90;;;;;;4980954;28;20262;-83
2021/03/16 00:25:52;;;;;;;;;;;19.40;99.90;;;;;;4995138;28;19940;-83
2021/03/16 00:28:20;;;;;;;;;;;19.40;99.90;;;;;;4994420;28;19997;-79
2021/03/16 00:30:48;;;;;;;;;;;19.50;99.90;;;;;;4993620;28;19910;-79
2021/03/16 00:33:16;;;;;;;;;;;19.60;99.90;;;;;;4987988;28;20343;-79
2021/03/16 00:35:42;;;;;;;;;;;19.60;99.90;;;;;;4994145;28;19920;-78
2021/03/16 00:38:09;;;;;;;;;;;19.70;99.90;;;;;;4985891;28;19926;-79
2021/03/16 00:40:36;;;;;;;;;;;19.80;99.90;;;;;;4987491;28;19920;-78
2021/03/16 00:43:03;;;;;;;;;;;19.80;99.90;;;;;;4985682;28;19913;-80
2021/03/16 00:45:31;;;;;;;;;;;19.80;99.90;;;;;;4985330;28;19926;-80
2021/03/16 00:48:00;;;;;;;;;;;19.80;99.90;;;;;;4986685;28;20393;-78
2021/03/16 00:50:27;;;;;;;;;;;19.80;99.90;;;;;;4985090;28;19917;-78
2021/03/16 00:52:54;;;;;;;;;;;19.70;99.90;;;;;;4982478;28;20020;-78
2021/03/16 00:55:21;;;;;;;;;;;19.70;99.90;;;;;;4983912;28;19910;-81
2021/03/16 00:57:48;;;;;;;;;;;19.70;99.90;;;;;;4985729;28;20017;-79
2021/03/16 01:00:15;;;;;;;;;;;19.70;99.90;;;;;;4991876;28;19924;-82
2021/03/16 01:02:42;;;;;;;;;;;19.70;99.90;;;;;;5002022;28;19918;-79
2021/03/16 01:05:09;;;;;;;;;;;19.70;99.90;;;;;;4996992;28;20311;-78
2021/03/16 01:07:37;;;;;;;;;;;19.60;99.90;;;;;;4981179;28;20342;-78
2021/03/16 01:10:10;;;;;;;;;;;19.50;99.90;;;;;;4981096;28;19953;-78
2021/03/16 01:12:37;;;;;;;;;;;19.60;99.90;;;;;;4984146;28;19920;-79
2021/03/16 01:15:04;;;;;;;;;;;19.60;99.90;;;;;;4983767;28;19917;-81
2021/03/16 01:17:30;;;;;;;;;;;19.60;99.90;;;;;;4992007;28;20387;-80
2021/03/16 01:19:59;;;;;;;;;;;19.60;99.90;;;;;;4992213;28;20320;-78
2021/03/16 01:22:25;;;;;;;;;;;19.70;99.90;;;;;;4992735;28;19968;-83
2021/03/16 01:24:52;;;;;;;;;;;19.80;99.90;;;;;;4992564;28;19918;-79
2021/03/16 01:27:20;;;;;;;;;;;19.90;99.90;;;;;;4986561;28;19973;-79
2021/03/16 01:29:46;;;;;;;;;;;20.00;99.90;;;;;;4991005;28;19918;-80
2021/03/16 01:32:13;;;;;;;;;;;20.10;99.90;;;;;;4991546;28;20364;-80
2021/03/16 01:34:40;;;;;;;;;;;20.20;99.90;;;;;;4991620;28;19997;-80
2021/03/16 01:37:06;;;;;;;;;;;20.40;99.90;;;;;;5001491;28;19922;-80
2021/03/16 01:39:33;;;;;;;;;;;20.40;99.90;;;;;;4992464;28;19918;-80
2021/03/16 01:42:00;;;;;;;;;;;20.50;99.90;;;;;;4992618;28;20584;-80
2021/03/16 01:44:27;;;;;;;;;;;20.60;99.90;;;;;;4992563;28;19957;-79
2021/03/16 01:46:53;;;;;;;;;;;20.50;99.90;;;;;;4975907;28;20034;-82
2021/03/16 01:49:20;;;;;;;;;;;20.50;99.90;;;;;;4990153;28;20324;-79
2021/03/16 01:51:48;;;;;;;;;;;20.60;99.90;;;;;;5003899;28;19917;-80
2021/03/16 01:54:15;;;;;;;;;;;20.60;99.90;;;;;;4990601;28;20391;-79
2021/03/16 01:56:42;;;;;;;;;;;20.60;99.90;;;;;;4990849;28;19910;-79
2021/03/16 01:59:15;;;;;;;;;;;20.50;99.90;;;;;;4991903;28;19917;-80
2021/03/16 02:01:43;;;;;;;;;;;20.60;99.90;;;;;;5003161;28;19906;-80
2021/03/16 02:04:11;;;;;;;;;;;20.60;99.90;;;;;;5013130;28;19949;-81
2021/03/16 02:06:43;;;;;;;;;;;20.50;99.90;;;;;;4994756;28;19922;-80
2021/03/16 02:09:19;;;;;;;;;;;20.50;99.90;;;;;;4993954;28;19932;-84
2021/03/16 02:11:48;;;;;;;;;;;20.50;99.90;;;;;;4986194;28;20050;-79
2021/03/16 02:14:14;;;;;;;;;;;20.60;99.90;;;;;;4991124;28;19914;-81
2021/03/16 02:16:51;;;;;;;;;;;20.50;99.90;;;;;;4991847;28;19929;-78
2021/03/16 02:19:36;;;;;;;;;;;20.50;99.90;;;;;;4990194;28;19918;-80
2021/03/16 02:22:03;;;;;;;;;;;20.40;99.90;;;;;;4988354;28;19952;-79
2021/03/16 02:24:38;;;;;;;;;;;20.30;99.90;;;;;;4991408;28;19955;-80
2021/03/16 02:27:08;;;;;;;;;;;20.20;99.90;;;;;;4992292;28;19918;-80
2021/03/16 02:29:46;;;;;;;;;;;20.10;99.90;;;;;;4992257;28;20002;-79
2021/03/16 02:32:17;;;;;;;;;;;20.00;99.90;;;;;;4991824;28;19914;-80
2021/03/16 02:34:47;;;;;;;;;;;19.90;99.90;;;;;;4991876;28;20426;-78
2021/03/16 02:37:14;;;;;;;;;;;19.90;99.90;;;;;;4990985;28;19929;-79
2021/03/16 02:39:42;;;;;;;;;;;19.90;99.90;;;;;;4977662;28;19920;-79
2021/03/16 02:42:10;;;;;;;;;;;19.90;99.90;;;;;;4991983;28;20016;-78
2021/03/16 02:44:37;;;;;;;;;;;19.70;99.90;;;;;;4981165;28;19925;-82
2021/03/16 02:47:04;;;;;;;;;;;19.70;99.90;;;;;;4985049;28;19914;-81
2021/03/16 02:49:32;;;;;;;;;;;19.70;99.90;;;;;;4988093;28;20024;-80
2021/03/16 02:51:59;;;;;;;;;;;19.60;99.90;;;;;;4981767;28;19933;-79
2021/03/16 02:54:26;;;;;;;;;;;19.50;99.90;;;;;;4992152;28;19971;-81
2021/03/16 02:56:56;;;;;;;;;;;19.50;99.90;;;;;;4980572;28;20000;-79
2021/03/16 02:59:24;;;;;;;;;;;19.40;99.90;;;;;;4991782;28;19913;-79
2021/03/16 03:01:51;;;;;;;;;;;19.40;99.90;;;;;;4989304;28;19920;-79
2021/03/16 03:04:20;;;;;;;;;;;19.30;99.90;;;;;;4989895;28;19950;-77
2021/03/16 03:06:49;;;;;;;;;;;19.30;99.90;;;;;;4991163;28;19918;-82
2021/03/16 03:09:16;;;;;;;;;;;19.30;99.90;;;;;;4991073;28;19920;-83
2021/03/16 03:11:43;;;;;;;;;;;19.30;99.90;;;;;;5002570;28;20057;-78
2021/03/16 03:14:10;;;;;;;;;;;19.30;99.90;;;;;;4991490;28;20416;-81
2021/03/16 03:16:37;;;;;;;;;;;19.30;99.90;;;;;;4989546;28;20016;-80
2021/03/16 03:19:05;;;;;;;;;;;19.30;99.90;;;;;;4987275;28;19914;-77
2021/03/16 03:21:45;;;;;;;;;;;19.30;99.90;;;;;;4993547;28;19934;-82
2021/03/16 03:24:13;;;;;;;;;;;19.10;99.90;;;;;;4989264;28;19921;-79
2021/03/16 03:27:02;;;;;;;;;;;18.80;99.90;;;;;;4986347;28;19915;-81
2021/03/16 03:29:30;;;;;;;;;;;18.80;99.90;;;;;;4979741;28;20288;-79
2021/03/16 03:31:57;;;;;;;;;;;18.70;99.90;;;;;;4985017;28;19924;-79
2021/03/16 03:34:24;;;;;;;;;;;18.60;99.90;;;;;;4977457;28;19910;-80
2021/03/16 03:36:52;;;;;;;;;;;18.50;99.90;;;;;;4988707;28;20311;-78
2021/03/16 03:39:20;;;;;;;;;;;18.50;99.90;;;;;;4994499;28;20400;-80
2021/03/16 03:41:49;;;;;;;;;;;18.50;99.90;;;;;;4982501;28;20368;-79
2021/03/16 03:44:16;;;;;;;;;;;18.40;99.90;;;;;;4990729;28;19917;-77
2021/03/16 03:46:44;;;;;;;;;;;18.40;99.90;;;;;;4989216;28;19917;-78
2021/03/16 03:49:11;;;;;;;;;;;18.40;99.90;;;;;;4995166;28;19914;-79
2021/03/16 03:51:38;;;;;;;;;;;18.70;99.90;;;;;;4992870;28;20376;-82
2021/03/16 03:54:06;;;;;;;;;;;18.70;99.90;;;;;;4988194;28;19958;-78
2021/03/16 03:56:34;;;;;;;;;;;18.70;99.90;;;;;;4986905;28;19961;-79
2021/03/16 03:59:05;;;;;;;;;;;18.80;99.90;;;;;;4986632;28;19944;-80
2021/03/16 04:01:32;;;;;;;;;;;18.90;99.90;;;;;;4977597;28;19946;-78
2021/03/16 04:04:01;;;;;;;;;;;19.10;99.90;;;;;;4975935;28;19920;-79
2021/03/16 04:06:28;;;;;;;;;;;19.20;99.90;;;;;;4987835;28;20372;-81
2021/03/16 04:08:55;;;;;;;;;;;19.20;99.90;;;;;;4992481;28;20373;-80
2021/03/16 04:11:22;;;;;;;;;;;19.40;99.90;;;;;;4986143;28;19914;-77
2021/03/16 04:13:50;;;;;;;;;;;19.40;99.90;;;;;;4990747;28;19926;-79
2021/03/16 04:16:17;;;;;;;;;;;19.50;99.90;;;;;;4982525;28;20288;-78
2021/03/16 04:18:44;;;;;;;;;;;19.40;99.90;;;;;;4995432;28;19914;-80
2021/03/16 04:21:11;;;;;;;;;;;19.40;99.90;;;;;;4975973;28;20369;-79
2021/03/16 04:23:38;;;;;;;;;;;19.50;99.90;;;;;;4987344;28;19918;-78
2021/03/16 04:26:05;;;;;;;;;;;19.50;99.90;;;;;;4994418;28;19941;-78
2021/03/16 04:28:31;;;;;;;;;;;19.50;99.90;;;;;;4987252;28;19980;-80
2021/03/16 04:30:59;;;;;;;;;;;19.60;99.90;;;;;;4985426;28;19914;-79
2021/03/16 04:33:25;;;;;;;;;;;19.60;99.90;;;;;;4985154;28;19971;-79
2021/03/16 04:35:53;;;;;;;;;;;19.60;99.90;;;;;;4982702;28;19954;-80
2021/03/16 04:38:20;;;;;;;;;;;19.60;99.90;;;;;;4985375;28;19909;-80
2021/03/16 04:40:48;;;;;;;;;;;19.70;99.90;;;;;;4987518;28;20390;-81
2021/03/16 04:43:17;;;;;;;;;;;19.70;99.90;;;;;;4983647;28;19921;-80
2021/03/16 04:45:44;;;;;;;;;;;19.70;99.90;;;;;;4980325;28;20403;-79
2021/03/16 04:48:10;;;;;;;;;;;19.60;99.90;;;;;;4982951;28;19914;-78
2021/03/16 04:50:40;;;;;;;;;;;19.60;99.90;;;;;;4984710;28;19914;-84
2021/03/16 04:53:06;;;;;;;;;;;19.50;99.90;;;;;;4987843;28;19918;-84
2021/03/16 04:55:34;;;;;;;;;;;19.30;99.90;;;;;;4978593;28;19987;-79
2021/03/16 04:58:02;;;;;;;;;;;19.20;99.90;;;;;;4985850;28;19952;-80
2021/03/16 05:00:29;;;;;;;;;;;19.10;99.90;;;;;;4980545;28;20262;-85
2021/03/16 05:02:56;;;;;;;;;;;19.10;99.90;;;;;;4986531;28;19953;-81
2021/03/16 05:05:23;;;;;;;;;;;19.00;99.90;;;;;;4993015;28;20494;-80
2021/03/16 05:07:51;;;;;;;;;;;19.00;99.90;;;;;;4989218;28;19917;-83
2021/03/16 05:10:18;;;;;;;;;;;19.00;99.90;;;;;;4993890;28;19914;-83
2021/03/16 05:12:44;;;;;;;;;;;19.00;99.90;;;;;;4993296;28;20225;-81
2021/03/16 05:15:11;;;;;;;;;;;19.10;99.90;;;;;;4999481;28;19914;-83
2021/03/16 05:17:38;;;;;;;;;;;19.20;99.90;;;;;;4992148;28;19917;-79
2021/03/16 05:20:05;;;;;;;;;;;19.10;99.90;;;;;;4992479;28;19917;-83
2021/03/16 05:22:33;;;;;;;;;;;19.10;99.90;;;;;;4992906;28;19910;-80
2021/03/16 05:25:00;;;;;;;;;;;19.10;99.90;;;;;;4977524;28;19922;-81
2021/03/16 05:27:26;;;;;;;;;;;19.10;99.90;;;;;;4987204;28;19967;-79
2021/03/16 05:29:54;;;;;;;;;;;19.10;99.90;;;;;;4993193;28;19917;-81
2021/03/16 05:32:26;;;;;;;;;;;19.10;99.90;;;;;;4979537;28;19945;-84
2021/03/16 05:34:54;;;;;;;;;;;19.10;99.90;;;;;;4982297;28;19911;-84
2021/03/16 05:37:21;;;;;;;;;;;19.10;99.90;;;;;;4981055;28;19922;-82
2021/03/16 05:39:47;;;;;;;;;;;19.10;99.90;;;;;;5003562;28;19960;-81
2021/03/16 05:42:16;;;;;;;;;;;19.00;99.90;;;;;;4992993;28;19917;-80
2021/03/16 05:44:43;;;;;;;;;;;19.00;99.90;;;;;;4986556;28;19929;-80
2021/03/16 05:47:11;;;;;;;;;;;19.10;99.90;;;;;;4989618;28;19932;-82
2021/03/16 05:49:38;;;;;;;;;;;19.10;99.90;;;;;;4969454;28;19922;-78
2021/03/16 05:52:05;;;;;;;;;;;19.10;99.90;;;;;;4978033;28;20291;-82
2021/03/16 05:54:35;;;;;;;;;;;19.00;99.90;;;;;;4989023;28;20288;-82
2021/03/16 05:57:01;;;;;;;;;;;19.00;99.90;;;;;;4991791;28;19953;-80
2021/03/16 05:59:28;;;;;;;;;;;19.10;99.90;;;;;;4990381;28;20430;-80
2021/03/16 06:01:55;;;;;;;;;;;19.10;99.90;;;;;;4989906;28;19917;-82
2021/03/16 06:04:21;;;;;;;;;;;19.10;99.90;;;;;;4985204;28;20292;-82
2021/03/16 06:06:48;;;;;;;;;;;19.10;99.90;;;;;;4984740;28;19922;-82
2021/03/16 06:09:15;;;;;;;;;;;19.20;99.90;;;;;;4987555;28;19921;-81
2021/03/16 06:11:50;;;;;;;;;;;19.00;99.90;;;;;;4983920;28;20009;-80
2021/03/16 06:14:28;;;;;;;;;;;18.90;99.90;;;;;;4988556;28;19923;-83
2021/03/16 06:16:55;;;;;;;;;;;18.70;99.90;;;;;;4992774;28;20287;-83
2021/03/16 06:19:39;;;;;;;;;;;18.70;99.90;;;;;;4976049;28;20336;-83
2021/03/16 06:22:07;;;;;;;;;;;18.70;99.90;;;;;;4972823;28;19957;-84
2021/03/16 06:24:53;;;;;;;;;;;18.70;99.90;;;;;;4982539;28;19925;-81
2021/03/16 06:27:30;;;;;;;;;;;18.70;99.90;;;;;;4982175;28;19961;-80
2021/03/16 06:30:00;;;;;;;;;;;18.80;99.90;;;;;;4980243;28;19956;-81
2021/03/16 06:32:36;;;;;;;;;;;18.80;99.90;;;;;;4985703;28;19914;-81
2021/03/16 06:35:03;;;;;;;;;;;18.80;99.90;;;;;;4976040;28;19911;-82
2021/03/16 06:37:31;;;;;;;;;;;18.90;99.90;;;;;;4987369;28;19926;-83
2021/03/16 06:40:00;;;;;;;;;;;18.90;99.90;;;;;;4991133;28;19918;-82
2021/03/16 06:42:27;;;;;;;;;;;18.90;99.90;;;;;;4988976;28;19952;-80
2021/03/16 06:45:01;;;;;;;;;;;18.90;99.90;;;;;;4985328;28;19936;-80
2021/03/16 06:47:29;;;;;;;;;;;18.90;99.90;;;;;;4992903;28;20316;-83
2021/03/16 06:49:57;;;;;;;;;;;18.80;99.90;;;;;;5003597;28;19914;-82
2021/03/16 06:52:25;;;;;;;;;;;18.80;99.90;;;;;;4983175;28;19914;-80
2021/03/16 06:54:52;;;;;;;;;;;18.90;99.90;;;;;;4991080;28;19968;-78
2021/03/16 06:57:25;;;;;;;;;;;18.90;99.90;;;;;;4997985;28;19984;-79
2021/03/16 06:59:51;;;;;;;;;;;19.00;99.90;;;;;;5001938;28;19902;-82
2021/03/16 07:02:18;;;;;;;;;;;19.00;99.90;;;;;;5017752;28;19948;-81
2021/03/16 07:04:45;;;;;;;;;;;18.90;99.90;;;;;;4996627;28;19922;-79
2021/03/16 07:07:12;;;;;;;;;;;18.80;99.90;;;;;;4990241;28;19917;-82
2021/03/16 07:09:39;;;;;;;;;;;18.90;99.90;;;;;;4975538;28;19917;-80
2021/03/16 07:12:06;;;;;;;;;;;18.90;99.90;;;;;;4974537;28;19953;-80
2021/03/16 07:14:33;;;;;;;;;;;18.90;99.90;;;;;;4971903;28;19965;-84
2021/03/16 07:17:01;;;;;;;;;;;18.90;99.90;;;;;;4974973;28;20297;-79
2021/03/16 07:19:32;;;;;;;;;;;18.90;99.90;;;;;;4975365;28;20005;-83
2021/03/16 07:21:59;;;;;;;;;;;18.80;99.90;;;;;;4997450;28;20515;-82
2021/03/16 07:24:32;;;;;;;;;;;18.80;99.90;;;;;;4994473;28;19921;-81
2021/03/16 07:27:01;;;;;;;;;;;18.80;99.90;;;;;;4993706;28;20391;-82
2021/03/16 07:29:27;;;;;;;;;;;18.90;99.90;;;;;;5005946;28;20528;-83
2021/03/16 07:31:56;;;;;;;;;;;18.90;99.90;;;;;;4995230;28;19914;-83
2021/03/16 07:34:23;;;;;;;;;;;18.90;99.90;;;;;;4994185;28;20008;-82
2021/03/16 07:36:51;;;;;;;;;;;18.80;99.90;;;;;;4995704;28;19925;-83
2021/03/16 07:39:19;;;;;;;;;;;18.80;99.90;;;;;;4992975;28;19968;-80
2021/03/16 07:41:47;;;;;;;;;;;18.80;99.90;;;;;;4993787;28;20447;-82
2021/03/16 07:44:15;;;;;;;;;;;18.90;99.90;;;;;;4993865;28;19917;-81
2021/03/16 07:46:45;;;;;;;;;;;18.90;99.90;;;;;;4987530;28;20001;-80
2021/03/16 07:49:13;;;;;;;;;;;18.90;99.90;;;;;;4992932;28;19994;-83
2021/03/16 07:51:44;;;;;;;;;;;18.80;99.90;;;;;;4993957;28;19996;-80
2021/03/16 07:54:11;;;;;;;;;;;18.80;99.90;;;;;;4990103;28;20033;-80
2021/03/16 07:56:40;;;;;;;;;;;18.80;99.90;;;;;;4993919;28;20379;-80
2021/03/16 07:59:07;;;;;;;;;;;18.80;99.90;;;;;;4992552;28;19920;-81
2021/03/16 08:01:45;;;;;;;;;;;18.70;99.90;;;;;;4994284;28;20376;-81
2021/03/16 08:04:13;;;;;;;;;;;18.70;99.90;;;;;;4994838;28;19914;-81
2021/03/16 08:06:41;;;;;;;;;;;18.70;99.90;;;;;;4994540;28;19972;-81
2021/03/16 08:09:18;;;;;;;;;;;18.70;99.90;;;;;;4995782;28;19953;-81
2021/03/16 08:11:45;;;;;;;;;;;18.70;99.90;;;;;;4993669;28;20013;-81
2021/03/16 08:14:21;;;;;;;;;;;18.70;99.90;;;;;;4989078;28;20367;-81
2021/03/16 08:16:48;;;;;;;;;;;18.60;99.90;;;;;;4995470;28;19925;-81
2021/03/16 08:19:16;;;;;;;;;;;18.60;99.90;;;;;;4994098;28;19933;-80
2021/03/16 08:21:43;;;;;;;;;;;18.50;99.90;;;;;;4995312;28;19913;-81
2021/03/16 08:24:16;;;;;;;;;;;18.50;99.90;;;;;;4993230;28;19924;-81
2021/03/16 08:26:52;;;;;;;;;;;18.50;99.90;;;;;;4985609;28;19921;-79
2021/03/16 08:29:26;;;;;;;;;;;18.40;99.90;;;;;;4980029;28;19918;-80
2021/03/16 08:31:54;;;;;;;;;;;18.50;99.90;;;;;;4982403;28;19924;-79
2021/03/16 08:34:24;;;;;;;;;;;18.50;99.90;;;;;;4978853;28;19922;-82
2021/03/16 08:36:51;;;;;;;;;;;18.50;99.90;;;;;;4984181;28;20381;-81
2021/03/16 08:39:25;;;;;;;;;;;18.40;99.90;;;;;;4993108;28;20128;-83
2021/03/16 08:41:56;;;;;;;;;;;18.50;99.90;;;;;;4994934;28;20372;-82
2021/03/16 08:44:26;;;;;;;;;;;18.50;99.90;;;;;;4992523;28;19914;-82
2021/03/16 08:46:53;;;;;;;;;;;18.50;99.90;;;;;;4993224;28;19921;-83
2021/03/16 08:49:21;;;;;;;;;;;18.60;99.90;;;;;;4991495;28;20295;-81
2021/03/16 08:51:48;;;;;;;;;;;18.60;99.90;;;;;;4991654;28;19914;-80
2021/03/16 08:54:27;;;;;;;;;;;18.50;99.90;;;;;;4993085;28;19917;-80
2021/03/16 08:56:54;;;;;;;;;;;18.60;99.90;;;;;;4993209;28;19956;-81
2021/03/16 08:59:22;;;;;;;;;;;18.60;99.90;;;;;;4992694;28;20825;-80
2021/03/16 09:01:50;;;;;;;;;;;18.60;99.90;;;;;;4992879;28;19914;-80
2021/03/16 09:04:17;;;;;;;;;;;18.60;99.90;;;;;;4994637;28;19910;-81
2021/03/16 09:06:44;;;;;;;;;;;18.60;99.90;;;;;;4994898;28;19957;-81
2021/03/16 09:09:12;;;;;;;;;;;18.70;99.90;;;;;;4993284;28;19957;-82
2021/03/16 09:11:43;;;;;;;;;;;18.70;99.90;;;;;;4995162;28;19914;-81
2021/03/16 09:14:11;;;;;;;;;;;18.70;99.90;;;;;;4998699;28;19925;-81
2021/03/16 09:16:42;;;;;;;;;;;18.80;99.90;;;;;;4993033;28;19914;-79
2021/03/16 09:19:13;;;;;;;;;;;18.80;99.90;;;;;;4986459;28;19914;-81
2021/03/16 09:21:49;;;;;;;;;;;18.80;99.90;;;;;;4987431;28;19910;-79
2021/03/16 09:24:19;;;;;;;;;;;18.80;99.90;;;;;;4977673;28;19910;-82
2021/03/16 09:26:58;;;;;;;;;;;18.90;99.90;;;;;;4974014;28;19915;-81
2021/03/16 09:29:26;;;;;;;;;;;19.00;99.90;;;;;;4971413;28;21226;-82
2021/03/16 09:31:53;;;;;;;;;;;19.00;99.90;;;;;;5009185;28;19909;-82
2021/03/16 09:34:20;;;;;;;;;;;19.10;99.90;;;;;;4993472;28;19968;-82
2021/03/16 09:36:57;;;;;;;;;;;19.10;99.90;;;;;;4993824;28;19929;-82
2021/03/16 09:39:24;;;;;;;;;;;19.10;99.90;;;;;;4994122;28;20275;-83
2021/03/16 09:41:59;;;;;;;;;;;19.10;99.90;;;;;;4993361;28;19914;-83
2021/03/16 09:44:36;;;;;;;;;;;19.00;99.90;;;;;;4994116;28;19992;-83
2021/03/16 09:47:05;;;;;;;;;;;19.10;99.90;;;;;;4994536;28;19924;-83
2021/03/16 09:49:36;;;;;;;;;;;19.10;99.90;;;;;;4994454;28;19910;-83
2021/03/16 09:52:08;;;;;;;;;;;19.00;99.90;;;;;;4994150;28;19910;-83
2021/03/16 09:54:37;;;;;;;;;;;19.10;99.90;;;;;;4994526;28;20349;-83
2021/03/16 09:57:11;;;;;;;;;;;19.10;99.90;;;;;;4992906;28;19937;-82
2021/03/16 09:59:39;;;;;;;;;;;19.10;99.90;;;;;;4994374;28;19910;-82
2021/03/16 10:02:06;;;;;;;;;;;19.20;99.90;;;;;;4993951;28;19910;-82
2021/03/16 10:04:51;;;;;;;;;;;19.20;99.90;;;;;;4993999;28;19917;-83
2021/03/16 10:07:24;;;;;;;;;;;19.20;99.90;;;;;;4994263;28;19914;-83
2021/03/16 10:09:53;;;;;;;;;;;19.20;99.90;;;;;;4992562;28;19972;-83
2021/03/16 10:12:21;;;;;;;;;;;19.20;99.90;;;;;;4994305;28;19980;-83
2021/03/16 10:14:51;;;;;;;;;;;19.10;99.90;;;;;;4994137;28;20360;-82
2021/03/16 10:17:28;;;;;;;;;;;19.20;99.90;;;;;;4994564;28;19916;-83
2021/03/16 10:19:59;;;;;;;;;;;19.20;99.90;;;;;;4993826;28;19964;-82
2021/03/16 10:22:30;;;;;;;;;;;19.30;99.90;;;;;;4993920;28;19925;-82
2021/03/16 10:25:10;;;;;;;;;;;19.30;99.90;;;;;;5008870;28;19918;-83
2021/03/16 10:27:37;;;;;;;;;;;19.30;99.90;;;;;;4993934;28;19916;-81
2021/03/16 10:30:08;;;;;;;;;;;19.30;99.90;;;;;;4993233;28;20360;-81
2021/03/16 10:32:35;;;;;;;;;;;19.40;99.90;;;;;;5008821;28;19924;-81
2021/03/16 10:35:02;;;;;;;;;;;19.40;99.90;;;;;;4992796;28;20360;-81
2021/03/16 10:37:29;;;;;;;;;;;19.40;99.90;;;;;;4994169;28;19925;-82
2021/03/16 10:39:59;;;;;;;;;;;19.40;99.90;;;;;;5008959;28;19910;-82
2021/03/16 10:42:28;;;;;;;;;;;19.50;99.90;;;;;;4992962;28;19960;-82
2021/03/16 10:44:56;;;;;;;;;;;19.60;99.90;;;;;;4994249;28;19913;-82
2021/03/16 10:47:23;;;;;;;;;;;19.60;99.90;;;;;;5009183;28;19918;-82
2021/03/16 10:49:49;;;;;;;;;;;19.60;99.90;;;;;;5008958;28;19910;-81
2021/03/16 10:52:16;;;;;;;;;;;19.60;99.90;;;;;;4993771;28;19910;-81
2021/03/16 10:54:43;;;;;;;;;;;19.60;99.90;;;;;;4993908;28;19910;-81
2021/03/16 10:57:09;;;;;;;;;;;19.50;99.90;;;;;;5009941;28;19917;-82
2021/03/16 10:59:36;;;;;;;;;;;19.60;99.90;;;;;;4993273;28;20305;-80
2021/03/16 11:02:03;;;;;;;;;;;19.40;99.90;;;;;;4991805;28;20337;-81
2021/03/16 11:04:29;;;;;;;;;;;19.40;99.90;;;;;;4993402;28;19920;-81
2021/03/16 11:06:56;;;;;;;;;;;19.30;99.90;;;;;;4993532;28;19910;-84
2021/03/16 11:09:23;;;;;;;;;;;19.30;99.90;;;;;;4993502;28;20361;-81
2021/03/16 11:11:49;;;;;;;;;;;19.30;99.90;;;;;;4993411;28;19917;-80
2021/03/16 11:14:16;;;;;;;;;;;19.30;99.90;;;;;;4993069;28;19958;-82
2021/03/16 11:16:43;;;;;;;;;;;19.40;99.90;;;;;;4993317;28;19910;-81
2021/03/16 11:19:09;;;;;;;;;;;19.40;99.90;;;;;;4993267;28;20454;-82
2021/03/16 11:21:36;;;;;;;;;;;19.40;99.90;;;;;;4993363;28;19964;-81
2021/03/16 11:24:03;;;;;;;;;;;19.40;99.90;;;;;;4993036;28;20343;-81
2021/03/16 11:26:33;;;;;;;;;;;19.40;99.90;;;;;;4992949;28;19918;-81
2021/03/16 11:29:01;;;;;;;;;;;19.50;99.90;;;;;;4988553;28;19921;-81
2021/03/16 11:31:27;;;;;;;;;;;19.50;99.90;;;;;;4991199;28;19914;-81
2021/03/16 11:33:54;;;;;;;;;;;19.50;99.90;;;;;;4992472;28;20311;-82
2021/03/16 11:36:21;;;;;;;;;;;19.60;99.90;;;;;;4990958;28;19965;-82
2021/03/16 11:38:48;;;;;;;;;;;19.60;99.90;;;;;;4987109;28;19922;-84
2021/03/16 11:41:17;;;;;;;;;;;19.60;99.90;;;;;;4994090;28;19930;-82
2021/03/16 11:43:44;;;;;;;;;;;19.60;99.90;;;;;;4995443;28;19922;-80
2021/03/16 11:46:11;;;;;;;;;;;19.70;99.90;;;;;;4995898;28;19929;-80
2021/03/16 11:48:37;;;;;;;;;;;19.70;99.90;;;;;;4987268;28;19914;-81
2021/03/16 11:51:05;;;;;;;;;;;19.60;99.90;;;;;;4986164;28;19914;-83
2021/03/16 11:53:32;;;;;;;;;;;19.60;99.90;;;;;;4985006;28;19941;-79
2021/03/16 11:56:02;;;;;;;;;;;19.60;99.90;;;;;;4985405;28;20433;-80
2021/03/16 11:58:32;;;;;;;;;;;19.60;99.90;;;;;;4976151;28;20057;-82
2021/03/16 12:00:58;;;;;;;;;;;19.60;99.90;;;;;;4987796;28;20021;-79
2021/03/16 12:03:27;;;;;;;;;;;19.60;99.90;;;;;;4985944;28;20045;-80
2021/03/16 12:05:54;;;;;;;;;;;19.60;99.90;;;;;;4986201;28;19975;-79
2021/03/16 12:08:24;;;;;;;;;;;19.60;99.90;;;;;;4987933;28;19910;-80
2021/03/16 12:10:51;;;;;;;;;;;19.60;99.90;;;;;;4994286;28;19914;-80
2021/03/16 12:13:17;;;;;;;;;;;19.70;99.90;;;;;;4995050;28;19914;-80
2021/03/16 12:15:44;;;;;;;;;;;19.60;99.90;;;;;;4996087;28;20441;-79
2021/03/16 12:18:11;;;;;;;;;;;19.70;99.90;;;;;;4994735;28;19968;-80
2021/03/16 12:20:37;;;;;;;;;;;19.70;99.90;;;;;;4996229;28;19960;-80
2021/03/16 12:23:04;;;;;;;;;;;19.60;99.90;;;;;;4987508;28;19914;-79
2021/03/16 12:25:31;;;;;;;;;;;19.60;99.90;;;;;;4976432;28;19918;-79
2021/03/16 12:27:58;;;;;;;;;;;19.60;99.90;;;;;;4984886;28;19914;-79
2021/03/16 12:30:24;;;;;;;;;;;19.70;99.90;;;;;;4995458;28;19917;-80
2021/03/16 12:32:51;;;;;;;;;;;19.60;99.90;;;;;;4995518;28;19914;-85
2021/03/16 12:35:19;;;;;;;;;;;19.60;99.90;;;;;;4994178;28;20020;-82
2021/03/16 12:37:46;;;;;;;;;;;19.60;99.90;;;;;;4991973;28;19926;-81
2021/03/16 12:40:13;;;;;;;;;;;19.70;99.90;;;;;;4994861;28;19914;-81
2021/03/16 12:42:41;;;;;;;;;;;19.70;99.90;;;;;;4995326;28;19956;-81
2021/03/16 12:45:08;;;;;;;;;;;19.70;99.90;;;;;;4993764;28;19922;-81
2021/03/16 12:47:35;;;;;;;;;;;19.70;99.90;;;;;;4988053;28;19914;-80
2021/03/16 12:50:02;;;;;;;;;;;19.60;99.90;;;;;;4994585;28;19920;-79
2021/03/16 12:52:29;;;;;;;;;;;19.60;99.90;;;;;;4994972;28;19910;-82
2021/03/16 12:54:56;;;;;;;;;;;19.60;99.90;;;;;;4993958;28;19937;-79
2021/03/16 12:57:25;;;;;;;;;;;19.60;99.90;;;;;;4976014;28;20285;-82
2021/03/16 12:59:52;;;;;;;;;;;19.70;99.90;;;;;;4994593;28;20373;-80
2021/03/16 13:02:18;;;;;;;;;;;19.70;99.90;;;;;;4994713;28;20003;-81
2021/03/16 13:04:45;;;;;;;;;;;19.70;99.90;;;;;;4994904;28;20391;-82
2021/03/16 13:07:12;;;;;;;;;;;19.70;99.90;;;;;;4994818;28;20384;-81
2021/03/16 13:09:38;;;;;;;;;;;19.80;99.90;;;;;;4982843;28;19973;-81
2021/03/16 13:12:05;;;;;;;;;;;19.80;99.90;;;;;;4974342;28;19955;-81
2021/03/16 13:14:32;;;;;;;;;;;19.80;99.90;;;;;;4993814;28;19928;-81
2021/03/16 13:16:59;;;;;;;;;;;19.80;99.90;;;;;;4994146;28;19925;-80
2021/03/16 13:19:25;;;;;;;;;;;19.70;99.90;;;;;;4994440;28;19914;-79
2021/03/16 13:21:52;;;;;;;;;;;19.70;99.90;;;;;;4994596;28;19918;-79
2021/03/16 13:24:19;;;;;;;;;;;19.70;99.90;;;;;;4994580;28;19920;-80
2021/03/16 13:26:45;;;;;;;;;;;19.70;99.90;;;;;;4993042;28;19918;-80
2021/03/16 13:29:12;;;;;;;;;;;19.60;99.90;;;;;;4994031;28;20315;-81
2021/03/16 13:31:39;;;;;;;;;;;19.60;99.90;;;;;;4994107;28;20261;-80
2021/03/16 13:34:05;;;;;;;;;;;19.60;99.90;;;;;;4994131;28;19914;-81
2021/03/16 13:36:32;;;;;;;;;;;19.60;99.90;;;;;;4994450;28;20324;-80
2021/03/16 13:38:59;;;;;;;;;;;19.50;99.90;;;;;;4994803;28;19918;-81
2021/03/16 13:41:25;;;;;;;;;;;19.50;99.90;;;;;;4994341;28;20293;-80
2021/03/16 13:43:52;;;;;;;;;;;19.50;99.90;;;;;;4994169;28;19914;-80
2021/03/16 13:46:19;;;;;;;;;;;19.50;99.90;;;;;;4993801;28;20377;-81
2021/03/16 13:48:45;;;;;;;;;;;19.50;99.90;;;;;;4994512;28;20004;-80
2021/03/16 13:51:12;;;;;;;;;;;19.50;99.90;;;;;;4994438;28;20360;-81
2021/03/16 13:53:39;;;;;;;;;;;19.50;99.90;;;;;;4994195;28;20005;-80
2021/03/16 13:56:05;;;;;;;;;;;19.40;99.90;;;;;;4994607;28;19957;-82
2021/03/16 13:58:32;;;;;;;;;;;19.40;99.90;;;;;;4993263;28;19921;-82
2021/03/16 14:00:59;;;;;;;;;;;19.40;99.90;;;;;;4990147;28;19925;-80
2021/03/16 14:03:26;;;;;;;;;;;19.40;99.90;;;;;;4993191;28;19921;-80
2021/03/16 14:05:52;;;;;;;;;;;19.40;99.90;;;;;;4994132;28;19979;-81
2021/03/16 14:08:19;;;;;;;;;;;19.30;99.90;;;;;;4994419;28;19945;-81
2021/03/16 14:10:46;;;;;;;;;;;19.30;99.90;;;;;;4994923;28;19913;-80
2021/03/16 14:13:12;;;;;;;;;;;19.30;99.90;;;;;;4994907;28;19964;-81
2021/03/16 14:15:39;;;;;;;;;;;19.30;99.90;;;;;;4994513;28;20387;-81
2021/03/16 14:18:06;;;;;;;;;;;19.20;99.90;;;;;;4993480;28;19932;-82
2021/03/16 14:20:35;;;;;;;;;;;19.10;99.90;;;;;;4993509;28;20317;-82
2021/03/16 14:23:02;;;;;;;;;;;19.20;99.90;;;;;;4993755;28;19933;-82